aviador You're here:

OMSJ Decoded Metar

SHARJAH in UNITED ARAB EMIRATES
Report Time2017-08-18 16:00:00
UTC Time2017-08-18 16:27:53
Flight Rules vfr VFR
Wind250° at 07 kt
W.Decomp.*RWY 30: 4.4 kt HW 5.4 kt LCW
W.Rank250° ranks 22
Current wind is below 250° avg. (7.5)
Visibility9999 m
Phenomena:N/A
Clouds:N/A
Expected CloudBase > 6,800 ft AGL from Temp-Dew spread
CeilingNone
Temp37°C (ISA +22)
Dew Point20°C (37% RH)
Heat Index40.1°C
QNH0999 hPa
Density Alt3,396 ft
Elevation108 ft
Report Wrong Elevation
Raw Report
METAR OMSJ 181600Z 25007KT CAVOK 37/20 Q0999=

Extra information for OMSJ:More info

Metar Taf Metar & Taf Last 4 Metars F.Rules Stats Wind Profile Meteogram Temp Stats Airport Information Weather charts Add Link Nearby VenuesMetar ALERT Operation Metar Decoded Social comments